Time;durP1;ratioP1;P1;durP2;ratioP2;P2;SDS_P1;SDS_P2;PMS_P1;PMS_P2;Temp;Humidity;BMP_temperature;BMP_pressure;BME280_temperature;BME280_humidity;BME280_pressure;Samples;Min_cycle;Max_cycle;Signal;HPM_P1;HPM_P2
2022/01/25 00:09:59;;;;;;;18.63;11.30;;;3.40;1.00;;;;;;5073214;28;20575;-62
2022/01/25 00:15:14;;;;;;;19.93;12.57;;;3.20;1.00;;;;;;5073264;28;20227;-61
2022/01/25 00:26:04;;;;;;;20.27;13.37;;;3.00;1.00;;;;;;5072884;28;20781;-61
2022/01/25 00:28:47;;;;;;;18.73;11.93;;;3.00;1.00;;;;;;5072723;28;20501;-62
2022/01/25 00:31:14;;;;;;;19.97;12.83;;;3.10;1.00;;;;;;5073142;28;20294;-62
2022/01/25 00:33:43;;;;;;;21.90;12.77;;;3.10;1.00;;;;;;5072683;28;20455;-61
2022/01/25 00:36:11;;;;;;;24.37;13.57;;;3.20;1.00;;;;;;5072445;28;20209;-61
2022/01/25 00:38:40;;;;;;;19.10;12.30;;;3.30;1.00;;;;;;5072399;28;20949;-62
2022/01/25 00:41:07;;;;;;;22.43;12.50;;;3.30;1.00;;;;;;5072548;28;20655;-62
2022/01/25 00:43:34;;;;;;;19.47;12.53;;;3.30;1.00;;;;;;5072645;28;20210;-62
2022/01/25 00:46:05;;;;;;;19.80;11.50;;;3.50;1.00;;;;;;5072789;28;20210;-62
2022/01/25 00:48:42;;;;;;;20.00;12.77;;;3.50;1.00;;;;;;5072418;28;20207;-62
2022/01/25 00:51:24;;;;;;;19.90;12.87;;;3.60;1.00;;;;;;5073080;28;20225;-61
2022/01/25 00:53:56;;;;;;;20.50;12.60;;;3.50;1.00;;;;;;5072313;28;20216;-62
2022/01/25 00:56:23;;;;;;;21.67;12.00;;;3.50;1.00;;;;;;5072671;28;20585;-61
2022/01/25 00:58:51;;;;;;;23.23;13.43;;;3.60;1.00;;;;;;5072508;28;20226;-62
2022/01/25 01:01:18;;;;;;;22.63;13.83;;;3.60;1.00;;;;;;5071206;28;20288;-62
2022/01/25 01:03:45;;;;;;;20.93;13.53;;;3.60;1.00;;;;;;5072560;28;20632;-61
2022/01/25 01:06:12;;;;;;;19.03;12.47;;;3.60;1.00;;;;;;5071866;28;20275;-62
2022/01/25 01:08:39;;;;;;;21.47;12.60;;;3.50;1.00;;;;;;5072233;28;20301;-62
2022/01/25 01:11:11;;;;;;;20.97;12.60;;;3.40;1.00;;;;;;5071925;28;20715;-62
2022/01/25 01:14:01;;;;;;;21.70;12.37;;;3.30;1.00;;;;;;5072321;28;20270;-61
2022/01/25 01:16:54;;;;;;;21.80;13.10;;;3.30;1.00;;;;;;5071903;28;20228;-61
2022/01/25 01:30:36;;;;;;;21.77;13.63;;;3.40;1.00;;;;;;5072345;28;20212;-61
2022/01/25 01:33:33;;;;;;;22.93;13.93;;;3.30;1.00;;;;;;5072114;28;20205;-61
2022/01/25 01:41:57;;;;;;;26.70;14.53;;;3.40;1.00;;;;;;5073791;28;20228;-61
2022/01/25 01:44:28;;;;;;;24.50;14.60;;;3.40;1.00;;;;;;5071995;28;20209;-61
2022/01/25 01:47:08;;;;;;;21.83;13.50;;;3.40;1.00;;;;;;5072308;28;20604;-61
2022/01/25 01:49:40;;;;;;;20.40;12.60;;;3.40;1.00;;;;;;5072116;28;20610;-61
2022/01/25 01:52:08;;;;;;;22.50;13.60;;;3.20;1.00;;;;;;5071630;28;20221;-62
2022/01/25 01:54:36;;;;;;;24.87;14.17;;;3.30;1.00;;;;;;5071887;28;20857;-61
2022/01/25 01:57:06;;;;;;;24.37;14.33;;;3.30;1.00;;;;;;5071606;28;20473;-61
2022/01/25 01:59:34;;;;;;;21.40;13.03;;;3.40;1.00;;;;;;5071615;28;20205;-62
2022/01/25 02:02:01;;;;;;;23.23;13.20;;;3.40;1.00;;;;;;5071576;28;20229;-61
2022/01/25 02:04:28;;;;;;;23.40;13.40;;;3.50;1.00;;;;;;5071387;28;20214;-60
2022/01/25 02:06:56;;;;;;;21.80;13.57;;;3.40;1.00;;;;;;5071387;28;20206;-61
2022/01/25 02:09:23;;;;;;;21.87;13.80;;;3.30;1.00;;;;;;5071808;28;20205;-61
2022/01/25 02:11:50;;;;;;;25.23;13.73;;;3.30;1.00;;;;;;5073709;28;20644;-61
2022/01/25 02:14:16;;;;;;;21.47;13.63;;;3.40;1.00;;;;;;5075706;28;20258;-61
2022/01/25 02:17:01;;;;;;;24.50;13.97;;;3.40;1.00;;;;;;5075513;28;20304;-61
2022/01/25 02:22:28;;;;;;;25.50;14.50;;;3.30;1.00;;;;;;5075371;28;20232;-61
2022/01/25 02:24:55;;;;;;;23.30;14.77;;;3.30;1.00;;;;;;5075520;28;20209;-61
2022/01/25 02:27:22;;;;;;;24.87;15.07;;;3.20;1.00;;;;;;5074729;28;20200;-61
2022/01/25 02:29:49;;;;;;;24.03;14.73;;;3.40;1.00;;;;;;5075450;28;20209;-61
2022/01/25 02:32:15;;;;;;;24.00;14.13;;;3.40;1.00;;;;;;5075217;28;20271;-61
2022/01/25 02:34:42;;;;;;;25.90;13.70;;;3.20;1.00;;;;;;5075043;28;20259;-61
2022/01/25 02:37:12;;;;;;;23.77;15.23;;;3.10;1.00;;;;;;5075007;28;20461;-61
2022/01/25 02:39:42;;;;;;;25.87;14.63;;;3.10;1.00;;;;;;5074933;28;20217;-61
2022/01/25 02:42:10;;;;;;;26.23;15.27;;;3.10;1.00;;;;;;5074538;28;20229;-61
2022/01/25 02:44:37;;;;;;;24.57;14.80;;;3.10;1.00;;;;;;5075088;28;20238;-61
2022/01/25 02:49:50;;;;;;;25.03;14.00;;;3.10;1.00;;;;;;5075256;28;20431;-61
2022/01/25 02:52:17;;;;;;;23.57;14.40;;;2.90;1.00;;;;;;5075007;28;20466;-61
2022/01/25 02:54:45;;;;;;;28.23;16.67;;;3.00;1.00;;;;;;5074754;28;20216;-61
2022/01/25 02:57:12;;;;;;;26.90;15.10;;;2.90;1.00;;;;;;5075162;28;20447;-62
2022/01/25 02:59:39;;;;;;;28.17;14.83;;;3.00;1.00;;;;;;5074813;28;20447;-60
2022/01/25 03:02:06;;;;;;;26.70;15.73;;;2.90;1.00;;;;;;5075078;28;20862;-63
2022/01/25 03:04:33;;;;;;;28.47;16.70;;;2.90;1.00;;;;;;5074402;28;20505;-61
2022/01/25 03:07:00;;;;;;;26.13;15.73;;;2.90;1.00;;;;;;5074327;28;20504;-61
2022/01/25 03:09:26;;;;;;;28.30;14.97;;;2.90;1.00;;;;;;5074992;28;20451;-63
2022/01/25 03:11:56;;;;;;;32.57;15.20;;;2.90;1.00;;;;;;5074749;28;20467;-60
2022/01/25 03:14:27;;;;;;;29.13;16.37;;;2.90;1.00;;;;;;5074749;28;20205;-61
2022/01/25 03:17:07;;;;;;;23.50;14.20;;;3.00;1.00;;;;;;5074620;28;20591;-60
2022/01/25 03:20:01;;;;;;;24.87;15.97;;;3.00;1.00;;;;;;5074154;28;21021;-61
2022/01/25 03:22:44;;;;;;;27.40;16.10;;;2.90;1.00;;;;;;5073562;28;20525;-61
2022/01/25 03:25:11;;;;;;;32.73;16.17;;;3.00;1.00;;;;;;5074164;28;20868;-61
2022/01/25 03:27:38;;;;;;;31.77;16.83;;;3.00;1.00;;;;;;5073872;28;20450;-61
2022/01/25 03:30:06;;;;;;;30.20;16.87;;;3.10;1.00;;;;;;5074087;28;20937;-61
2022/01/25 03:32:33;;;;;;;27.27;17.40;;;3.20;1.00;;;;;;5074438;28;20226;-61
2022/01/25 03:35:00;;;;;;;31.43;16.27;;;3.30;1.00;;;;;;5074790;28;20205;-62
2022/01/25 03:37:26;;;;;;;28.43;16.63;;;3.30;1.00;;;;;;5074345;28;20706;-61
2022/01/25 03:39:53;;;;;;;33.57;16.50;;;3.40;1.00;;;;;;5073876;28;20616;-59
2022/01/25 03:42:20;;;;;;;29.77;16.60;;;3.20;1.00;;;;;;5073563;28;20233;-61
2022/01/25 03:44:49;;;;;;;27.33;16.60;;;3.20;1.00;;;;;;5074234;28;20451;-61
2022/01/25 03:47:19;;;;;;;28.90;16.40;;;3.10;1.00;;;;;;5073515;28;20823;-61
2022/01/25 03:49:50;;;;;;;29.83;16.77;;;3.20;1.00;;;;;;5073987;28;20211;-61
2022/01/25 03:52:21;;;;;;;29.70;17.13;;;3.20;1.00;;;;;;5073721;28;20304;-61
2022/01/25 03:54:48;;;;;;;30.10;17.23;;;3.20;1.00;;;;;;5073880;28;20447;-61
2022/01/25 03:57:15;;;;;;;29.07;17.33;;;3.20;1.00;;;;;;5073500;28;20934;-61
2022/01/25 03:59:42;;;;;;;31.00;16.90;;;3.20;1.00;;;;;;5073582;28;20824;-61
2022/01/25 04:02:11;;;;;;;28.07;17.07;;;3.30;1.00;;;;;;5073390;28;20228;-61
2022/01/25 04:04:38;;;;;;;30.90;17.07;;;3.30;1.00;;;;;;5073374;28;20216;-61
2022/01/25 04:07:09;;;;;;;32.37;16.87;;;3.40;1.00;;;;;;5073202;28;20300;-61
2022/01/25 04:09:36;;;;;;;30.93;16.60;;;3.30;1.00;;;;;;5073025;28;20224;-61
2022/01/25 04:12:03;;;;;;;26.87;15.27;;;3.20;1.00;;;;;;5073523;28;20644;-61
2022/01/25 04:14:30;;;;;;;30.00;16.87;;;3.20;1.00;;;;;;5073090;28;20451;-61
2022/01/25 04:17:00;;;;;;;29.73;16.53;;;3.40;1.00;;;;;;5073227;28;20205;-61
2022/01/25 04:19:34;;;;;;;24.40;15.63;;;3.40;1.00;;;;;;5073065;28;20582;-61
2022/01/25 04:25:04;;;;;;;27.73;16.43;;;3.40;1.00;;;;;;5073190;28;20710;-59
2022/01/25 04:27:32;;;;;;;31.03;16.77;;;3.50;1.00;;;;;;5072969;28;20213;-60
2022/01/25 04:29:59;;;;;;;27.90;17.30;;;3.40;1.00;;;;;;5072976;28;20204;-59
2022/01/25 04:32:33;;;;;;;30.07;16.60;;;3.30;1.00;;;;;;5072714;28;20255;-60
2022/01/25 04:35:11;;;;;;;31.00;17.23;;;3.20;1.00;;;;;;5072096;28;20728;-60
2022/01/25 04:51:47;;;;;;;30.03;15.47;;;2.90;1.00;;;;;;5012190;28;20493;-59
2022/01/25 04:54:24;;;;;;;29.23;16.73;;;2.90;1.00;;;;;;5011125;28;20859;-60
2022/01/25 04:56:58;;;;;;;31.13;16.70;;;2.90;1.00;;;;;;5046374;28;20869;-59
2022/01/25 04:59:26;;;;;;;32.27;16.67;;;2.90;1.00;;;;;;5072263;28;20555;-60
2022/01/25 05:01:59;;;;;;;33.10;16.83;;;2.90;1.00;;;;;;5073484;28;20845;-59
2022/01/25 05:04:30;;;;;;;29.50;15.63;;;2.90;1.00;;;;;;5073975;28;20493;-59
2022/01/25 05:07:08;;;;;;;29.80;16.13;;;2.90;1.00;;;;;;5072704;28;20465;-58
2022/01/25 05:09:36;;;;;;;29.20;16.50;;;3.00;1.00;;;;;;5072329;28;20451;-59
2022/01/25 05:12:04;;;;;;;29.93;16.83;;;3.00;1.00;;;;;;5072789;28;20307;-60
2022/01/25 05:14:34;;;;;;;31.57;16.53;;;3.10;1.00;;;;;;5072381;28;20208;-57
2022/01/25 05:17:04;;;;;;;29.83;16.67;;;3.20;1.00;;;;;;5072611;28;20205;-60
2022/01/25 05:22:23;;;;;;;31.40;16.73;;;3.20;1.00;;;;;;5072200;28;20302;-59
2022/01/25 05:24:52;;;;;;;33.47;16.73;;;3.30;1.00;;;;;;5072204;28;20570;-58
2022/01/25 05:27:21;;;;;;;35.27;17.17;;;3.40;1.00;;;;;;5072164;28;20451;-59
2022/01/25 05:29:47;;;;;;;28.80;15.97;;;3.20;1.00;;;;;;5072058;28;20212;-58
2022/01/25 05:32:14;;;;;;;32.17;15.60;;;3.10;1.00;;;;;;5072093;28;20471;-59
2022/01/25 05:34:41;;;;;;;34.37;17.07;;;3.10;1.00;;;;;;5071826;28;20270;-59
2022/01/25 05:37:08;;;;;;;32.53;16.90;;;3.10;1.00;;;;;;5071101;28;20875;-60
2022/01/25 05:39:37;;;;;;;26.37;15.27;;;3.00;1.00;;;;;;5059617;28;20218;-61
2022/01/25 05:45:18;;;;;;;27.83;16.70;;;3.00;1.00;;;;;;5009420;28;20309;-61
2022/01/25 05:47:45;;;;;;;28.23;16.43;;;3.10;1.00;;;;;;5008742;28;20221;-60
2022/01/25 05:50:13;;;;;;;29.33;16.23;;;3.20;1.00;;;;;;5030653;28;20448;-59
2022/01/25 05:52:40;;;;;;;33.23;16.97;;;3.20;1.00;;;;;;5051370;28;20295;-57
2022/01/25 05:55:10;;;;;;;29.57;16.87;;;3.20;1.00;;;;;;5051170;28;20248;-59
2022/01/25 05:57:37;;;;;;;29.63;17.20;;;3.30;1.00;;;;;;5051053;28;20213;-59
2022/01/25 06:00:06;;;;;;;32.37;17.40;;;3.20;1.00;;;;;;5050822;28;20210;-60
2022/01/25 06:02:34;;;;;;;30.93;16.83;;;3.20;1.00;;;;;;5050950;28;20221;-60
2022/01/25 06:05:01;;;;;;;30.20;16.70;;;3.10;1.00;;;;;;5051060;28;20589;-60
2022/01/25 06:07:27;;;;;;;31.90;16.73;;;3.10;1.00;;;;;;5051373;28;20205;-59
2022/01/25 06:09:54;;;;;;;39.87;17.33;;;3.00;1.00;;;;;;5050751;28;20853;-60
2022/01/25 06:12:22;;;;;;;32.87;18.10;;;3.00;1.00;;;;;;5050924;28;20236;-60
2022/01/25 06:14:49;;;;;;;35.43;17.67;;;3.00;1.00;;;;;;5050883;28;20567;-58
2022/01/25 06:17:16;;;;;;;33.33;16.87;;;3.00;1.00;;;;;;5051190;28;20214;-60
2022/01/25 06:19:43;;;;;;;29.43;16.03;;;2.90;1.00;;;;;;5050888;28;20201;-61
2022/01/25 06:22:10;;;;;;;36.03;18.17;;;3.00;1.00;;;;;;5051037;28;20226;-61
2022/01/25 06:24:37;;;;;;;29.30;16.20;;;3.00;1.00;;;;;;5051239;28;20288;-61
2022/01/25 06:27:04;;;;;;;36.37;18.10;;;3.10;1.00;;;;;;5050880;28;20212;-61
2022/01/25 06:29:32;;;;;;;32.23;17.83;;;3.10;1.00;;;;;;5051512;28;20210;-60
2022/01/25 06:32:00;;;;;;;31.80;17.27;;;3.10;1.00;;;;;;5057772;28;20236;-63
2022/01/25 06:34:26;;;;;;;32.03;16.73;;;3.20;1.00;;;;;;5071680;28;20303;-62
2022/01/25 06:36:53;;;;;;;32.77;16.33;;;3.00;1.00;;;;;;5073725;28;20537;-61
2022/01/25 06:39:20;;;;;;;33.07;17.77;;;2.90;1.00;;;;;;5072565;28;20851;-62
2022/01/25 06:41:47;;;;;;;35.83;17.80;;;2.80;1.00;;;;;;5070785;28;21039;-63
2022/01/25 06:44:14;;;;;;;35.97;18.07;;;2.70;1.00;;;;;;5070776;28;20260;-63
2022/01/25 06:46:46;;;;;;;34.67;17.93;;;2.70;1.00;;;;;;5071213;28;20443;-61
2022/01/25 06:49:13;;;;;;;39.50;18.03;;;2.60;1.00;;;;;;5071646;28;20838;-61
2022/01/25 06:51:40;;;;;;;36.57;16.93;;;2.70;1.00;;;;;;5071495;28;20482;-62
2022/01/25 06:54:06;;;;;;;34.83;16.73;;;2.80;1.00;;;;;;5070606;28;20473;-61
2022/01/25 06:56:33;;;;;;;33.50;16.00;;;2.70;1.00;;;;;;5070722;28;20504;-62
2022/01/25 06:59:00;;;;;;;35.10;17.07;;;2.70;1.00;;;;;;5072932;28;20957;-62
2022/01/25 07:01:27;;;;;;;32.23;16.07;;;2.70;1.00;;;;;;5073743;28;20467;-63
2022/01/25 07:03:55;;;;;;;30.60;15.40;;;2.60;1.00;;;;;;5074073;28;20483;-63
2022/01/25 07:06:22;;;;;;;32.40;15.70;;;2.70;1.00;;;;;;5073937;28;20497;-63
2022/01/25 07:08:48;;;;;;;32.97;17.03;;;2.70;1.00;;;;;;5074297;28;20454;-62
2022/01/25 07:11:15;;;;;;;33.97;16.00;;;2.70;1.00;;;;;;5074245;28;20240;-61
2022/01/25 07:13:43;;;;;;;29.17;15.57;;;2.80;1.00;;;;;;5081201;28;20443;-63
2022/01/25 07:16:09;;;;;;;33.20;15.77;;;2.80;1.00;;;;;;5084182;28;20447;-62
2022/01/25 07:18:36;;;;;;;38.10;17.07;;;2.70;1.00;;;;;;5079707;28;20455;-61
2022/01/25 07:21:04;;;;;;;31.03;15.27;;;2.50;1.00;;;;;;5073705;28;20969;-62
2022/01/25 07:23:31;;;;;;;37.43;16.27;;;2.60;1.00;;;;;;5073191;28;20992;-64
2022/01/25 07:25:58;;;;;;;31.13;16.27;;;2.70;1.00;;;;;;5073693;28;20452;-63
2022/01/25 07:28:25;;;;;;;29.63;16.37;;;2.70;1.00;;;;;;5073818;28;20209;-61
2022/01/25 07:30:51;;;;;;;37.80;17.30;;;2.80;1.00;;;;;;5073425;28;20467;-62
2022/01/25 07:33:18;;;;;;;32.83;16.40;;;2.90;1.00;;;;;;5073465;28;20215;-62
2022/01/25 07:35:45;;;;;;;27.63;14.93;;;2.90;1.00;;;;;;5073097;28;20213;-60
2022/01/25 07:38:15;;;;;;;33.83;16.93;;;2.90;1.00;;;;;;5074098;28;20495;-64
2022/01/25 07:40:42;;;;;;;33.60;15.83;;;2.80;1.00;;;;;;5073687;28;20256;-61
2022/01/25 07:43:09;;;;;;;35.77;17.20;;;2.80;1.00;;;;;;5073519;28;20562;-61
2022/01/25 07:45:37;;;;;;;36.97;17.70;;;2.70;1.00;;;;;;5073655;28;20216;-62
2022/01/25 07:48:05;;;;;;;34.20;18.20;;;2.70;1.00;;;;;;5073239;28;20289;-61
2022/01/25 07:50:32;;;;;;;34.67;18.00;;;2.70;1.00;;;;;;5072932;28;20446;-60
2022/01/25 07:52:58;;;;;;;32.87;17.77;;;2.70;1.00;;;;;;5073471;28;20455;-58
2022/01/25 07:55:27;;;;;;;40.70;19.87;;;2.70;1.00;;;;;;5073506;28;20443;-62
2022/01/25 07:57:54;;;;;;;38.53;18.67;;;2.60;1.00;;;;;;5073046;28;20500;-65
2022/01/25 08:00:21;;;;;;;41.27;18.37;;;2.60;1.00;;;;;;5072881;28;20903;-62
2022/01/25 08:02:48;;;;;;;34.50;17.67;;;2.70;1.00;;;;;;5072704;28;20451;-62
2022/01/25 08:05:16;;;;;;;35.93;18.00;;;2.70;1.00;;;;;;5073297;28;21064;-60
2022/01/25 08:07:44;;;;;;;35.90;18.13;;;2.80;1.00;;;;;;5072867;28;20443;-63
2022/01/25 08:10:11;;;;;;;34.67;17.67;;;2.70;1.00;;;;;;5072607;28;20231;-63
2022/01/25 08:12:40;;;;;;;35.23;17.80;;;2.80;1.00;;;;;;5073331;28;20450;-63
2022/01/25 08:15:08;;;;;;;39.87;17.83;;;2.70;1.00;;;;;;5072927;28;20439;-64
2022/01/25 08:17:35;;;;;;;34.13;17.60;;;2.80;1.00;;;;;;5076314;28;20439;-63
2022/01/25 08:20:02;;;;;;;33.10;17.47;;;2.80;1.00;;;;;;5073399;28;20709;-63
2022/01/25 08:22:29;;;;;;;33.53;16.73;;;2.90;1.00;;;;;;5073195;28;20904;-62
2022/01/25 08:24:56;;;;;;;35.43;17.83;;;3.00;1.00;;;;;;5072545;28;20909;-63
2022/01/25 08:27:24;;;;;;;35.17;17.57;;;2.90;1.00;;;;;;5074636;28;20454;-63
2022/01/25 08:29:53;;;;;;;36.23;18.10;;;2.80;1.00;;;;;;5077124;28;20452;-63
2022/01/25 08:32:21;;;;;;;36.27;17.57;;;2.80;1.00;;;;;;5074491;28;20230;-61
2022/01/25 08:34:48;;;;;;;35.00;18.03;;;2.90;1.00;;;;;;5072234;28;20224;-62
2022/01/25 08:37:15;;;;;;;39.37;18.80;;;3.00;1.00;;;;;;5072162;28;20462;-62
2022/01/25 08:39:43;;;;;;;37.87;18.63;;;3.00;1.00;;;;;;5072054;28;20447;-62
2022/01/25 08:42:10;;;;;;;35.60;18.10;;;3.00;1.00;;;;;;5071947;28;20232;-62
2022/01/25 08:44:37;;;;;;;34.67;18.03;;;3.10;1.00;;;;;;5071935;28;20996;-61
2022/01/25 08:47:06;;;;;;;34.63;18.63;;;3.10;1.00;;;;;;5072230;28;20526;-62
2022/01/25 08:49:35;;;;;;;41.10;19.70;;;3.00;1.00;;;;;;5071929;28;20468;-62
2022/01/25 08:52:02;;;;;;;33.50;18.93;;;2.90;1.00;;;;;;5072193;28;20474;-62
2022/01/25 08:54:28;;;;;;;37.33;18.93;;;2.70;1.00;;;;;;5071785;28;20447;-62
2022/01/25 08:56:56;;;;;;;34.93;18.83;;;2.80;1.00;;;;;;5071906;28;20451;-66
2022/01/25 08:59:23;;;;;;;38.23;19.40;;;2.90;1.00;;;;;;5071583;28;20505;-62
2022/01/25 09:01:50;;;;;;;34.90;19.27;;;3.00;1.00;;;;;;5072115;28;20475;-64
2022/01/25 09:04:18;;;;;;;35.93;18.90;;;3.10;1.00;;;;;;5071980;28;20492;-64
2022/01/25 09:06:45;;;;;;;39.67;19.77;;;3.10;1.00;;;;;;5071798;28;20209;-61
2022/01/25 09:09:12;;;;;;;35.67;18.33;;;3.10;1.00;;;;;;5071591;28;20675;-60
2022/01/25 09:11:41;;;;;;;29.70;17.57;;;3.10;1.00;;;;;;5071274;28;20226;-61
2022/01/25 09:14:09;;;;;;;33.43;17.87;;;3.10;1.00;;;;;;5072036;28;20436;-61
2022/01/25 09:16:37;;;;;;;35.87;19.63;;;3.20;1.00;;;;;;5071734;28;20209;-65
2022/01/25 09:19:04;;;;;;;34.40;18.63;;;3.20;1.00;;;;;;5071970;28;20209;-63
2022/01/25 09:21:32;;;;;;;35.57;18.53;;;3.10;1.00;;;;;;5071056;28;21238;-64
2022/01/25 09:24:00;;;;;;;36.67;19.47;;;3.00;1.00;;;;;;5071587;28;20699;-62
2022/01/25 09:26:27;;;;;;;35.13;18.73;;;3.00;1.00;;;;;;5071728;28;20220;-62
2022/01/25 09:28:55;;;;;;;36.50;19.27;;;3.10;1.00;;;;;;5071705;28;20451;-61
2022/01/25 09:31:21;;;;;;;32.40;18.80;;;3.10;1.00;;;;;;5071456;28;20899;-64
2022/01/25 09:33:48;;;;;;;34.37;19.03;;;3.10;1.00;;;;;;5071529;28;20473;-64
2022/01/25 09:36:15;;;;;;;30.17;18.40;;;3.10;1.00;;;;;;5071574;28;20452;-63
2022/01/25 09:38:43;;;;;;;32.97;18.77;;;3.10;1.00;;;;;;5071270;28;20204;-61
2022/01/25 09:41:10;;;;;;;31.20;17.70;;;3.10;1.00;;;;;;5071482;28;20228;-63
2022/01/25 09:43:36;;;;;;;34.70;17.10;;;3.20;1.00;;;;;;5071482;28;20447;-63
2022/01/25 09:46:03;;;;;;;33.67;18.97;;;3.10;1.00;;;;;;5071293;28;20267;-63
2022/01/25 09:48:30;;;;;;;38.97;18.23;;;3.20;1.00;;;;;;5071467;28;20838;-64
2022/01/25 09:50:58;;;;;;;38.80;18.30;;;3.20;1.00;;;;;;5070775;28;20240;-63
2022/01/25 09:53:25;;;;;;;32.80;17.80;;;3.20;1.00;;;;;;5071366;28;20212;-61
2022/01/25 09:55:53;;;;;;;36.07;19.73;;;3.30;1.00;;;;;;5071219;28;20299;-66
2022/01/25 09:58:20;;;;;;;35.17;18.43;;;3.30;1.00;;;;;;5071593;28;20452;-67
2022/01/25 10:00:48;;;;;;;34.77;19.00;;;3.30;1.00;;;;;;5071518;28;20225;-65
2022/01/25 10:03:23;;;;;;;36.10;18.80;;;3.30;1.00;;;;;;5071846;28;20248;-67
2022/01/25 10:05:51;;;;;;;39.80;19.73;;;3.40;1.00;;;;;;5071272;28;20821;-64
2022/01/25 10:08:20;;;;;;;36.90;19.43;;;3.40;1.00;;;;;;5071505;28;20214;-65
2022/01/25 10:10:49;;;;;;;32.53;18.10;;;3.40;1.00;;;;;;5071026;28;20311;-64
2022/01/25 10:13:21;;;;;;;34.23;19.13;;;3.50;1.00;;;;;;5071365;28;20209;-63
2022/01/25 10:15:48;;;;;;;36.83;19.87;;;3.40;99.90;;;;;;5072308;28;20228;-65
2022/01/25 10:18:16;;;;;;;37.20;19.63;;;3.50;99.90;;;;;;5071318;28;20210;-61
2022/01/25 10:20:45;;;;;;;37.27;19.07;;;3.50;99.90;;;;;;5070927;28;20252;-60
2022/01/25 10:23:14;;;;;;;33.67;18.87;;;3.60;99.90;;;;;;5072119;28;20619;-58
2022/01/25 10:25:42;;;;;;;41.27;18.60;;;3.50;99.90;;;;;;5071876;28;20264;-64
2022/01/25 10:28:12;;;;;;;40.87;19.47;;;3.40;99.90;;;;;;5071880;28;20205;-64
2022/01/25 10:30:49;;;;;;;38.63;18.67;;;3.30;99.90;;;;;;5070363;28;20251;-63
2022/01/25 10:33:25;;;;;;;37.73;19.03;;;3.20;99.90;;;;;;5072454;28;20217;-61
2022/01/25 10:35:53;;;;;;;33.40;18.07;;;3.30;99.90;;;;;;5075127;28;20233;-61
2022/01/25 10:38:22;;;;;;;34.73;18.87;;;3.40;99.90;;;;;;5075506;28;20204;-60
2022/01/25 10:40:55;;;;;;;35.23;18.77;;;3.50;99.90;;;;;;5075197;28;20225;-61
2022/01/25 10:43:29;;;;;;;32.23;17.20;;;3.50;99.90;;;;;;5074935;28;20236;-73
2022/01/25 10:49:46;;;;;;;36.73;18.17;;;4.30;1.00;;;;;;5091088;28;20207;-72
2022/01/25 10:52:13;;;;;;;33.37;18.20;;;5.00;1.00;;;;;;5098253;28;20319;-63
2022/01/25 10:54:41;;;;;;;32.90;18.73;;;5.20;1.00;;;;;;5080540;28;20204;-60
2022/01/25 10:57:18;;;;;;;36.53;20.80;;;5.20;99.90;;;;;;5074795;28;20597;-64
2022/01/25 10:59:57;;;;;;;37.37;20.00;;;5.10;99.90;;;;;;5073871;28;20628;-62
2022/01/25 11:02:24;;;;;;;35.10;19.03;;;4.90;51.80;;;;;;5074367;28;20235;-64
2022/01/25 11:04:52;;;;;;;39.30;19.73;;;4.70;65.40;;;;;;5073858;28;20228;-62
2022/01/25 11:07:19;;;;;;;37.53;18.70;;;4.60;98.80;;;;;;5074250;28;20293;-62
2022/01/25 11:09:47;;;;;;;36.53;19.70;;;4.50;99.90;;;;;;5073560;28;20649;-63
2022/01/25 11:12:18;;;;;;;42.03;21.27;;;4.40;99.90;;;;;;5074087;28;20225;-63
2022/01/25 11:14:53;;;;;;;39.30;19.10;;;3.80;99.90;;;;;;5073476;28;20648;-67
2022/01/25 11:17:20;;;;;;;37.93;20.97;;;3.90;99.90;;;;;;5074302;28;20208;-68
2022/01/25 11:19:47;;;;;;;40.20;19.40;;;3.70;99.90;;;;;;5073765;28;20214;-67
2022/01/25 11:22:19;;;;;;;40.37;20.23;;;3.70;99.90;;;;;;5073828;28;20231;-64
2022/01/25 11:24:49;;;;;;;38.87;19.03;;;3.80;99.90;;;;;;5073808;28;20219;-68
2022/01/25 11:27:17;;;;;;;39.23;19.70;;;3.60;99.90;;;;;;5073222;28;20212;-64
2022/01/25 11:29:45;;;;;;;38.33;19.70;;;3.60;99.90;;;;;;5073378;28;20644;-66
2022/01/25 11:32:15;;;;;;;37.60;20.47;;;3.30;99.90;;;;;;5073590;28;20229;-61
2022/01/25 11:34:44;;;;;;;38.40;20.03;;;3.40;99.90;;;;;;5073710;28;20687;-62
2022/01/25 11:37:11;;;;;;;43.60;20.60;;;3.50;99.90;;;;;;5073391;28;20221;-55
2022/01/25 11:39:43;;;;;;;41.30;20.37;;;3.50;99.90;;;;;;5072915;28;20588;-56
2022/01/25 11:42:11;;;;;;;38.10;18.73;;;3.50;99.90;;;;;;5073557;28;20236;-60
2022/01/25 11:44:47;;;;;;;37.77;19.10;;;3.60;99.90;;;;;;5074765;28;20284;-62
2022/01/25 11:47:17;;;;;;;41.17;20.40;;;3.60;99.90;;;;;;5078412;28;20564;-64
2022/01/25 11:49:54;;;;;;;40.57;20.77;;;3.60;99.90;;;;;;5073627;28;20202;-61
2022/01/25 11:52:22;;;;;;;41.90;20.93;;;3.70;99.90;;;;;;5073807;28;20916;-62
2022/01/25 11:54:52;;;;;;;40.33;20.70;;;3.60;99.90;;;;;;5073525;28;20207;-61
2022/01/25 11:57:21;;;;;;;39.93;22.20;;;3.60;99.90;;;;;;5079438;28;20233;-62
2022/01/25 11:59:51;;;;;;;43.43;19.60;;;3.60;99.90;;;;;;5077650;28;20460;-61
2022/01/25 12:02:40;;;;;;;40.33;20.07;;;3.70;99.90;;;;;;5073360;28;20234;-64
2022/01/25 12:05:07;;;;;;;35.33;19.50;;;3.70;99.90;;;;;;5073364;28;20268;-62
2022/01/25 12:07:39;;;;;;;46.90;20.93;;;3.80;99.90;;;;;;5072816;28;20244;-66
2022/01/25 12:10:35;;;;;;;38.37;18.97;;;3.90;99.90;;;;;;5072919;28;20305;-59
2022/01/25 12:13:13;;;;;;;36.00;18.40;;;3.80;99.90;;;;;;5072408;28;20209;-61
2022/01/25 12:15:40;;;;;;;36.20;19.57;;;3.80;99.90;;;;;;5073069;28;20208;-60
2022/01/25 12:18:10;;;;;;;40.33;19.13;;;3.90;99.90;;;;;;5072726;28;20206;-60
2022/01/25 12:20:48;;;;;;;34.50;18.10;;;3.90;99.90;;;;;;5072883;28;20317;-59
2022/01/25 12:23:19;;;;;;;34.63;19.40;;;3.90;99.90;;;;;;5072771;28;20203;-61
2022/01/25 12:25:51;;;;;;;34.63;17.97;;;4.00;99.90;;;;;;5072595;28;20364;-61
2022/01/25 12:28:24;;;;;;;37.23;19.93;;;3.90;99.90;;;;;;5072593;28;20209;-63
2022/01/25 12:30:50;;;;;;;40.80;19.87;;;4.00;99.90;;;;;;5072305;28;20710;-63
2022/01/25 12:33:22;;;;;;;35.90;18.63;;;4.00;99.90;;;;;;5072650;28;20220;-63
2022/01/25 12:35:50;;;;;;;37.53;17.93;;;3.90;99.90;;;;;;5073181;28;20260;-62
2022/01/25 12:38:24;;;;;;;43.57;20.73;;;3.60;99.90;;;;;;5073326;28;20300;-63
2022/01/25 12:41:02;;;;;;;39.23;19.70;;;3.60;99.90;;;;;;5072487;28;20264;-64
2022/01/25 12:43:33;;;;;;;39.20;19.00;;;3.60;99.90;;;;;;5072554;28;20214;-63
2022/01/25 12:46:03;;;;;;;38.67;21.37;;;3.70;99.90;;;;;;5072052;28;20226;-61
2022/01/25 12:48:32;;;;;;;38.93;19.67;;;3.70;99.90;;;;;;5072400;28;20210;-63
2022/01/25 12:51:02;;;;;;;43.23;21.63;;;3.80;99.90;;;;;;5072001;28;20609;-67
2022/01/25 12:53:31;;;;;;;45.97;21.20;;;3.90;99.90;;;;;;5072301;28;20458;-63
2022/01/25 12:56:02;;;;;;;43.70;20.93;;;3.90;99.90;;;;;;5071510;28;20209;-62
2022/01/25 12:58:31;;;;;;;38.70;20.03;;;3.90;99.90;;;;;;5072115;28;20215;-65
2022/01/25 13:01:02;;;;;;;38.20;20.00;;;4.00;99.90;;;;;;5071632;28;20229;-66
2022/01/25 13:03:31;;;;;;;35.57;18.97;;;4.30;1.00;;;;;;5071772;28;20208;-65
2022/01/25 13:06:01;;;;;;;40.03;19.93;;;4.50;99.90;;;;;;5071964;28;20240;-64
2022/01/25 13:08:33;;;;;;;35.23;19.50;;;4.60;99.90;;;;;;5072232;28;20274;-65
2022/01/25 13:11:48;;;;;;;33.50;19.37;;;4.70;99.90;;;;;;5071779;28;20221;-65
2022/01/25 13:16:59;;;;;;;38.47;17.63;;;4.80;1.00;;;;;;5069082;28;20200;-64
2022/01/25 13:19:28;;;;;;;33.00;17.30;;;4.90;55.60;;;;;;5071461;28;20266;-65
2022/01/25 13:21:57;;;;;;;37.87;17.93;;;4.80;97.20;;;;;;5071663;28;20600;-64
2022/01/25 13:24:29;;;;;;;34.50;18.50;;;4.80;99.90;;;;;;5071905;28;20206;-66
2022/01/25 13:27:00;;;;;;;40.33;18.77;;;4.70;94.70;;;;;;5071377;28;20685;-63
2022/01/25 13:32:22;;;;;;;35.73;17.57;;;4.40;99.90;;;;;;5071694;28;20220;-62
2022/01/25 13:35:05;;;;;;;36.67;18.30;;;4.30;99.90;;;;;;5071558;28;20217;-62
2022/01/25 13:37:33;;;;;;;35.70;17.70;;;4.10;99.90;;;;;;5071127;28;20681;-62
2022/01/25 13:40:03;;;;;;;35.10;17.90;;;4.10;99.90;;;;;;5071421;28;20223;-62
2022/01/25 13:42:40;;;;;;;36.97;18.87;;;3.90;99.90;;;;;;5071401;28;20223;-62
2022/01/25 13:47:59;;;;;;;38.00;18.53;;;3.90;99.90;;;;;;5071670;28;20209;-64
2022/01/25 13:50:27;;;;;;;36.47;19.30;;;3.80;99.90;;;;;;5071520;28;20205;-58
2022/01/25 13:52:54;;;;;;;39.00;19.13;;;3.70;99.90;;;;;;5071104;28;20356;-65
2022/01/25 13:55:20;;;;;;;36.30;19.33;;;3.80;99.90;;;;;;5071616;28;20718;-64
2022/01/25 13:57:49;;;;;;;38.63;19.17;;;3.70;99.90;;;;;;5071512;28;20251;-63
2022/01/25 14:00:16;;;;;;;40.03;19.43;;;3.70;99.90;;;;;;5071212;28;20204;-64
2022/01/25 14:02:43;;;;;;;37.27;19.07;;;3.70;99.90;;;;;;5071816;28;20585;-65
2022/01/25 14:05:10;;;;;;;43.73;20.17;;;3.60;99.90;;;;;;5071836;28;20228;-64
2022/01/25 14:07:37;;;;;;;43.97;21.07;;;3.50;99.90;;;;;;5073696;28;20626;-65
2022/01/25 14:10:08;;;;;;;36.77;18.87;;;3.50;99.90;;;;;;5075375;28;20301;-64
2022/01/25 14:23:44;;;;;;;41.23;19.27;;;3.80;99.90;;;;;;5093890;28;20205;-65